Agana Heights, GU

5:27 AM ChST on May 06, 2015 (GMT +1000)
Maite | | Change Station
CLOSE
Current Station
Personal Weather Station
Location: Maite, GU
Elevation: 140 ft
Nearby Weather Stations

Elev 140 ft 13.48 °N, 144.76 °E | Updated 4 seconds ago

Rain
Rain
80.1 °F
Feels Like 86 °F
N
5.0
Wind Variable Wind from ESE
Gusts 14.0 mph

Today
High -- | Low -- °F
--% Chance of Precip.
Yesterday
High -- | Low -- °F
Precip. -- in
5:58 AM 6:37 PM
Full, 97% visible
Pressure 29.77 in
Visibility 3.0 miles
Clouds Few 1500 ft
Scattered Clouds 2500 ft
Mostly Cloudy 4100 ft
Heat Index 86 °F
Dew Point 77 °F
Humidity 89%
Rainfall 0.02 in
Snow Depth Not available.
UV 0.0 out of 12
Pollen Not available.
Air Quality Not available.
Flu Activity Regional
METAR PGUM 051854Z 10010KT 3SM BR FEW015 SCT025 BKN041 27/25 A2979 RMK AO2 RAE10 SLP080 P0004 T02670250

More Conditions Fewer Conditions

Pressure 29.77 in
Visibility 3.0 miles
Clouds Few 1500 ft
Scattered Clouds 2500 ft
Mostly Cloudy 4100 ft
Heat Index 86 °F
Dew Point 77 °F
Humidity 89%
Rainfall 0.02 in
Snow Depth Not available.
UV 0.0 out of 12
Pollen Not available.
Air Quality Not available.
Flu Activity Regional
METAR PGUM 051854Z 10010KT 3SM BR FEW015 SCT025 BKN041 27/25 A2979 RMK AO2 RAE10 SLP080 P0004 T02670250

More Conditions Fewer Conditions

10-Day Weather Forecast

Almanac

Astronomy

May. 06, 2015 Rise Set
Actual Time
Civil Twilight
Nautical Twilight
Astronomical Twilight
Moon
Length of Visible Light
Length of Day
Tomorrow will be .
, % of the Moon is Illuminated

Today's Extremes

State Highs State Lows

Community

WunderPhotos

Upload Photos

1,818,957 photos uploaded!

WunderBlogs® & News

Nearby

Air Quality

  Air Quality AQ Index Pollutant
Not available.

Snow Depth

Station Depth Elevation

Earthquake Activity

City Distance Mag. Time & Date
Minimum magnitude displayed is 2.5.

Coastal Water Temperatures

Place Temperature

Stations

Nearby Weather Stations

Station Location Temp. Windchill Dew Point Humidity Wind Precip. Elev Updated Type